Time;durP1;ratioP1;P1;durP2;ratioP2;P2;SDS_P1;SDS_P2;PMS_P1;PMS_P2;Temp;Humidity;BMP_temperature;BMP_pressure;BME280_temperature;BME280_humidity;BME280_pressure;Samples;Min_cycle;Max_cycle;Signal;HPM_P1;HPM_P2
2022/10/09 00:01:33;;;;;;;7.88;2.92;;;;;;;6.50;86.74;101890.19;7394278;19;20015;-68
2022/10/09 00:04:04;;;;;;;6.30;2.40;;;;;;;6.48;86.88;101889.31;7392863;19;20010;-68
2022/10/09 00:06:35;;;;;;;6.07;2.90;;;;;;;6.45;86.84;101889.25;7394368;19;20094;-71
2022/10/09 00:09:05;;;;;;;4.00;2.58;;;;;;;6.44;86.64;101892.72;7394022;19;20031;-69
2022/10/09 00:11:35;;;;;;;9.05;3.40;;;;;;;6.41;86.38;101887.47;7394798;19;20611;-69
2022/10/09 00:14:05;;;;;;;7.93;3.00;;;;;;;6.39;86.58;101898.72;7393185;19;20026;-69
2022/10/09 00:16:36;;;;;;;6.60;2.83;;;;;;;6.33;86.65;101895.19;7394087;19;20027;-69
2022/10/09 00:19:04;;;;;;;7.63;3.00;;;;;;;6.29;86.55;101893.41;7393829;19;20489;-69
2022/10/09 00:21:41;;;;;;;8.02;3.17;;;;;;;6.26;86.85;101895.09;7394000;19;20540;-70
2022/10/09 00:24:10;;;;;;;3.53;2.78;;;;;;;6.22;87.17;101895.88;7394741;19;20030;-69
2022/10/09 00:26:39;;;;;;;6.18;3.60;;;;;;;6.21;86.92;101899.34;7394102;19;20039;-70
2022/10/09 00:29:07;;;;;;;7.85;4.50;;;;;;;6.18;86.67;101900.19;7394083;19;20019;-69
2022/10/09 00:31:38;;;;;;;7.53;4.15;;;;;;;6.16;87.12;101907.94;7392137;19;20020;-69
2022/10/09 00:34:07;;;;;;;9.77;4.65;;;;;;;6.15;87.17;101910.53;7392686;19;20019;-68
2022/10/09 00:36:35;;;;;;;8.43;4.80;;;;;;;6.12;87.08;101913.97;7393507;19;20476;-69
2022/10/09 00:39:04;;;;;;;6.57;3.67;;;;;;;6.10;87.25;101917.41;7393935;19;20074;-68
2022/10/09 00:41:33;;;;;;;5.30;3.47;;;;;;;6.08;87.15;101914.78;7393824;19;20031;-69
2022/10/09 00:44:03;;;;;;;8.30;3.70;;;;;;;6.05;87.54;101919.94;7393805;19;20018;-69
2022/10/09 00:46:41;;;;;;;6.25;3.65;;;;;;;6.02;87.29;101928.59;7393827;19;20023;-70
2022/10/09 00:49:25;;;;;;;8.52;4.22;;;;;;;6.01;87.66;101923.34;7394027;19;20031;-68
2022/10/09 00:51:55;;;;;;;;;;;;;;;5.97;89.24;101925.00;7398528;19;20086;-68
2022/10/09 00:54:28;;;;;;;7.95;3.55;;;;;;;5.94;87.94;101922.34;7398886;19;19986;-68
2022/10/09 00:56:57;;;;;;;7.80;3.13;;;;;;;5.92;87.81;101931.00;7400605;19;20018;-69
2022/10/09 00:59:26;;;;;;;4.65;3.35;;;;;;;5.90;87.98;101928.34;7400669;19;20031;-69
2022/10/09 01:01:57;;;;;;;9.60;3.67;;;;;;;5.88;88.26;101932.66;7398004;19;20031;-68
2022/10/09 01:04:26;;;;;;;9.55;3.90;;;;;;;5.86;88.10;101934.34;7400941;19;20018;-68
2022/10/09 01:07:08;;;;;;;4.93;3.45;;;;;;;5.82;88.39;101933.44;7400000;19;20022;-69
2022/10/09 01:09:42;;;;;;;7.00;3.63;;;;;;;5.83;88.38;101934.31;7400795;19;20022;-69
2022/10/09 01:12:21;;;;;;;6.82;3.40;;;;;;;5.81;88.53;101939.50;7400693;19;20018;-69
2022/10/09 01:14:59;;;;;;;7.13;3.85;;;;;;;5.82;89.00;101937.78;7399485;19;20011;-71
2022/10/09 01:17:36;;;;;;;10.75;3.40;;;;;;;5.82;89.11;101935.16;7399399;19;20094;-71
2022/10/09 01:20:40;;;;;;;9.75;3.50;;;;;;;5.80;90.66;101936.84;7399617;19;20036;-71
2022/10/09 01:23:38;;;;;;;8.63;3.97;;;;;;;5.80;89.98;101942.97;7398625;19;20374;-71
2022/10/09 01:26:39;;;;;;;6.88;3.53;;;;;;;5.82;90.15;101937.78;7398360;19;20028;-71
2022/10/09 01:29:13;;;;;;;7.20;3.65;;;;;;;5.81;89.30;101936.91;7398063;19;20039;-72
2022/10/09 01:31:44;;;;;;;11.00;3.95;;;;;;;5.84;89.79;101939.56;7398948;19;20033;-71
2022/10/09 01:34:15;;;;;;;7.80;3.50;;;;;;;5.82;89.85;101927.34;7397950;19;20027;-71
2022/10/09 01:36:45;;;;;;;9.20;3.38;;;;;;;5.86;89.74;101942.19;7399645;19;20036;-72
2022/10/09 01:39:20;;;;;;;7.35;3.33;;;;;;;5.85;89.79;101936.09;7399898;19;20015;-71
2022/10/09 01:41:49;;;;;;;9.82;3.50;;;;;;;5.86;89.65;101944.78;7399494;19;20373;-71
2022/10/09 01:44:24;;;;;;;10.32;3.92;;;;;;;5.86;90.28;101948.28;7398925;19;20391;-71
2022/10/09 01:46:53;;;;;;;8.02;3.47;;;;;;;5.85;90.66;101945.63;7398477;19;20031;-71
2022/10/09 01:49:39;;;;;;;6.55;3.40;;;;;;;5.86;90.35;101944.78;7399057;19;20090;-71
2022/10/09 01:52:16;;;;;;;9.50;4.03;;;;;;;5.83;90.02;101950.81;7397486;19;20019;-71
2022/10/09 01:54:54;;;;;;;7.30;3.28;;;;;;;5.82;90.17;101956.00;7397107;19;20014;-71
2022/10/09 01:57:29;;;;;;;7.60;3.10;;;;;;;5.78;89.74;101955.06;7397421;19;20088;-71
2022/10/09 02:00:03;;;;;;;7.63;3.50;;;;;;;5.79;89.64;101951.63;7398635;19;20427;-71
2022/10/09 02:02:32;;;;;;;7.43;2.88;;;;;;;5.76;89.74;101954.16;7394525;19;20019;-71
2022/10/09 02:05:02;;;;;;;7.18;3.30;;;;;;;5.75;89.44;101957.63;7397971;19;20015;-71
2022/10/09 02:07:33;;;;;;;7.47;3.05;;;;;;;5.75;89.43;101956.75;7397212;19;20021;-71
2022/10/09 02:10:04;;;;;;;10.10;3.35;;;;;;;5.75;89.21;101956.75;7397699;19;20010;-71
2022/10/09 02:12:38;;;;;;;5.70;2.90;;;;;;;5.73;89.36;101956.72;7398670;19;20380;-70
2022/10/09 02:15:11;;;;;;;7.70;3.28;;;;;;;5.71;88.88;101950.59;7396664;19;20430;-71
2022/10/09 02:17:45;;;;;;;6.18;3.35;;;;;;;5.70;88.88;101959.28;7395600;19;20485;-72
2022/10/09 02:20:20;;;;;;;9.25;2.92;;;;;;;5.69;88.78;101958.38;7398356;19;20427;-71
2022/10/09 02:22:50;;;;;;;7.82;3.40;;;;;;;5.68;88.63;101960.97;7397438;19;20027;-70
2022/10/09 02:25:20;;;;;;;5.97;3.00;;;;;;;5.65;88.97;101959.19;7397163;19;20474;-71
2022/10/09 02:27:49;;;;;;;6.43;2.80;;;;;;;5.64;89.07;101969.59;7396105;19;20022;-71
2022/10/09 02:30:22;;;;;;;9.50;3.22;;;;;;;5.63;88.85;101962.63;7397179;19;20018;-71
2022/10/09 02:32:53;;;;;;;8.20;3.63;;;;;;;5.60;88.70;101968.66;7397690;19;20010;-71
2022/10/09 02:35:23;;;;;;;5.72;3.30;;;;;;;5.59;88.74;101972.09;7395705;19;20018;-71
2022/10/09 02:37:57;;;;;;;15.18;3.25;;;;;;;5.54;88.89;101972.00;7395804;19;20022;-71
2022/10/09 02:40:26;;;;;;;7.72;2.85;;;;;;;5.53;88.70;101971.97;7395232;19;20031;-71
2022/10/09 02:42:54;;;;;;;5.28;2.88;;;;;;;5.53;88.78;101985.00;7396919;19;20031;-71
2022/10/09 02:45:26;;;;;;;6.15;2.83;;;;;;;5.52;88.72;101975.41;7396534;19;20379;-72
2022/10/09 02:47:54;;;;;;;7.28;3.15;;;;;;;5.49;88.58;101975.38;7396066;19;20018;-71
2022/10/09 02:50:23;;;;;;;8.10;3.30;;;;;;;5.48;88.64;101976.22;7397026;19;20059;-72
2022/10/09 02:52:51;;;;;;;10.32;2.97;;;;;;;5.45;88.64;101979.63;7394727;19;20023;-71
2022/10/09 02:55:20;;;;;;;7.00;2.97;;;;;;;5.43;88.70;101976.13;7395050;19;20026;-71
2022/10/09 02:57:48;;;;;;;6.82;3.10;;;;;;;5.41;88.75;101983.03;7394863;19;20019;-72
2022/10/09 03:00:17;;;;;;;6.10;3.50;;;;;;;5.36;88.84;101975.13;7396349;19;20081;-72
2022/10/09 03:02:48;;;;;;;10.80;3.70;;;;;;;5.34;89.34;101981.16;7396651;19;20035;-72
2022/10/09 03:05:17;;;;;;;6.30;3.90;;;;;;;5.31;89.24;101981.97;7396176;19;20018;-72
2022/10/09 03:07:50;;;;;;;6.07;3.45;;;;;;;5.28;89.10;101981.03;7395511;19;20423;-72
2022/10/09 03:10:19;;;;;;;9.35;4.03;;;;;;;5.26;89.10;101981.00;7396096;19;20074;-72
2022/10/09 03:12:47;;;;;;;9.18;4.93;;;;;;;5.23;89.03;101980.94;7396315;19;20018;-72
2022/10/09 03:15:17;;;;;;;7.25;3.83;;;;;;;5.22;89.05;101984.41;7394707;19;20396;-72
2022/10/09 03:17:48;;;;;;;11.35;4.65;;;;;;;5.20;89.18;101992.16;7398090;19;20028;-70
2022/10/09 03:20:17;;;;;;;8.25;4.10;;;;;;;5.18;89.01;101987.75;7398076;19;20379;-72
2022/10/09 03:22:45;;;;;;;6.40;4.38;;;;;;;5.17;89.05;101993.84;7395676;19;20473;-72
2022/10/09 03:25:14;;;;;;;8.27;4.28;;;;;;;5.15;89.14;102005.94;7395537;19;20022;-72
2022/10/09 03:27:42;;;;;;;8.93;4.40;;;;;;;5.13;88.97;102000.69;7394548;19;20481;-72
2022/10/09 03:30:12;;;;;;;10.25;4.47;;;;;;;5.11;89.05;102006.72;7395851;19;20027;-72
2022/10/09 03:32:40;;;;;;;6.95;4.38;;;;;;;5.10;89.23;102002.34;7395746;19;20426;-72
2022/10/09 03:35:11;;;;;;;10.88;4.55;;;;;;;5.06;89.15;102004.88;7394126;19;20011;-72
2022/10/09 03:37:46;;;;;;;9.23;4.70;;;;;;;5.05;89.22;102013.53;7394078;19;20022;-72
2022/10/09 03:40:14;;;;;;;9.48;4.50;;;;;;;5.03;89.29;102011.72;7395296;19;20010;-72
2022/10/09 03:42:43;;;;;;;9.02;4.50;;;;;;;5.02;89.19;102012.59;7395042;19;20031;-72
2022/10/09 03:45:12;;;;;;;7.55;4.47;;;;;;;4.98;89.41;102009.03;7393623;19;20014;-71
2022/10/09 03:47:40;;;;;;;11.50;5.28;;;;;;;4.98;89.48;102016.84;7394049;19;20111;-70
2022/10/09 03:50:12;;;;;;;12.70;4.60;;;;;;;4.93;89.48;102010.66;7394945;19;20018;-70
2022/10/09 03:52:40;;;;;;;8.38;4.93;;;;;;;4.94;89.33;102021.94;7394165;19;20024;-71
2022/10/09 03:55:10;;;;;;;9.15;4.55;;;;;;;4.92;89.26;102021.91;7394265;19;20410;-68
2022/10/09 03:57:38;;;;;;;10.13;5.05;;;;;;;4.89;89.38;102020.13;7394159;19;20022;-68
2022/10/09 04:00:09;;;;;;;11.45;5.57;;;;;;;4.87;89.47;102020.94;7393014;19;20032;-69
2022/10/09 04:02:37;;;;;;;9.35;5.10;;;;;;;4.84;89.21;102026.94;7394560;19;20015;-68
2022/10/09 04:05:07;;;;;;;9.27;4.40;;;;;;;4.82;89.45;102032.97;7394526;19;20031;-69
2022/10/09 04:07:38;;;;;;;9.18;4.57;;;;;;;4.78;89.40;102031.09;7393811;19;20022;-70
2022/10/09 04:10:08;;;;;;;11.13;4.55;;;;;;;4.75;89.52;102031.06;7394235;19;20022;-70
2022/10/09 04:12:43;;;;;;;10.98;4.95;;;;;;;4.71;89.92;102032.69;7394246;19;20014;-69
2022/10/09 04:15:12;;;;;;;12.77;5.65;;;;;;;4.67;90.46;102034.34;7393281;19;20034;-68
2022/10/09 04:17:40;;;;;;;8.95;5.22;;;;;;;4.63;90.98;102029.06;7393280;19;20102;-69
2022/10/09 04:20:10;;;;;;;11.23;5.63;;;;;;;4.60;90.49;102032.47;7394544;19;20018;-69
2022/10/09 04:22:41;;;;;;;9.38;5.10;;;;;;;4.59;90.92;102033.31;7394852;19;20019;-69
2022/10/09 04:25:11;;;;;;;9.38;5.55;;;;;;;4.58;90.59;102036.75;7394007;19;20019;-69
2022/10/09 04:27:39;;;;;;;11.05;5.60;;;;;;;4.57;91.38;102027.19;7398649;19;20026;-69
2022/10/09 04:30:09;;;;;;;9.35;6.07;;;;;;;4.56;91.31;102038.41;7401294;19;20494;-69
2022/10/09 04:32:38;;;;;;;9.93;5.30;;;;;;;4.55;91.93;102034.94;7401453;19;20025;-68
2022/10/09 04:35:07;;;;;;;7.43;5.00;;;;;;;4.55;91.69;102036.69;7400482;19;20078;-69
2022/10/09 04:37:36;;;;;;;12.65;4.97;;;;;;;4.55;90.94;102034.94;7400237;19;20478;-69
2022/10/09 04:40:07;;;;;;;10.95;5.53;;;;;;;4.54;90.92;102038.38;7401003;19;20503;-69
2022/10/09 04:42:36;;;;;;;10.68;6.38;;;;;;;4.57;90.75;102034.97;7401502;19;20026;-69
2022/10/09 04:45:05;;;;;;;13.02;5.55;;;;;;;4.56;90.80;102038.41;7400885;19;20520;-69
2022/10/09 04:47:35;;;;;;;11.75;5.63;;;;;;;4.57;91.04;102037.56;7399844;19;20027;-69
2022/10/09 04:50:04;;;;;;;14.73;6.13;;;;;;;4.55;90.65;102031.47;7398429;19;20031;-69
2022/10/09 04:52:33;;;;;;;10.95;5.97;;;;;;;4.56;90.80;102035.81;7397484;19;20330;-68
2022/10/09 04:55:01;;;;;;;12.00;6.13;;;;;;;4.57;90.76;102034.97;7399595;19;20082;-68
2022/10/09 04:57:32;;;;;;;9.70;5.88;;;;;;;4.56;90.69;102038.41;7399701;19;20028;-69
2022/10/09 05:00:01;;;;;;;13.23;5.90;;;;;;;4.51;90.78;102025.31;7401260;19;20026;-69
2022/10/09 05:02:30;;;;;;;7.97;5.60;;;;;;;4.54;90.79;102038.38;7398079;19;20031;-69
2022/10/09 05:04:58;;;;;;;14.70;6.50;;;;;;;4.52;90.65;102029.66;7400675;19;20039;-69
2022/10/09 05:07:27;;;;;;;14.02;5.78;;;;;;;4.53;90.47;102035.75;7397733;19;20015;-69
2022/10/09 05:09:56;;;;;;;11.07;6.25;;;;;;;4.52;90.79;102029.66;7398249;19;20027;-69
2022/10/09 05:12:24;;;;;;;14.10;6.75;;;;;;;4.52;90.74;102039.19;7397933;19;20014;-70
2022/10/09 05:14:56;;;;;;;16.20;7.13;;;;;;;4.52;90.68;102041.78;7399510;19;20018;-69
2022/10/09 05:17:24;;;;;;;11.65;5.90;;;;;;;4.51;90.75;102042.63;7398996;19;20393;-69
2022/10/09 05:19:53;;;;;;;12.55;6.38;;;;;;;4.50;90.73;102043.47;7399942;19;20022;-69
2022/10/09 05:22:21;;;;;;;15.98;6.53;;;;;;;4.48;90.89;102050.38;7397636;19;20019;-69
2022/10/09 05:24:50;;;;;;;11.68;6.68;;;;;;;4.48;90.86;102053.81;7397004;19;20485;-69
2022/10/09 05:27:18;;;;;;;15.07;7.40;;;;;;;4.48;90.94;102047.75;7398723;19;20018;-68
2022/10/09 05:29:47;;;;;;;12.32;6.10;;;;;;;4.47;90.84;102053.78;7399581;19;20015;-67
2022/10/09 05:32:18;;;;;;;9.90;6.18;;;;;;;4.47;90.94;102052.06;7399301;19;20027;-69
2022/10/09 05:34:46;;;;;;;11.05;6.95;;;;;;;4.47;91.02;102059.00;7399787;19;20010;-68
2022/10/09 05:37:15;;;;;;;10.82;7.03;;;;;;;4.34;90.96;102035.28;7398162;19;20025;-69
2022/10/09 05:39:43;;;;;;;17.25;8.05;;;;;;;4.47;90.95;102066.78;7399494;19;20078;-69
2022/10/09 05:42:12;;;;;;;15.68;8.80;;;;;;;4.47;91.18;102066.78;7397115;19;20006;-68
2022/10/09 05:44:41;;;;;;;109.88;56.83;;;;;;;4.46;91.23;102071.13;7399199;19;20022;-68
2022/10/09 05:47:09;;;;;;;23.50;13.52;;;;;;;4.47;91.26;102074.59;7398615;19;20026;-68
2022/10/09 05:49:40;;;;;;;15.00;9.00;;;;;;;4.47;91.17;102075.44;7399025;19;20031;-69
2022/10/09 05:52:09;;;;;;;17.92;8.40;;;;;;;4.49;91.29;102067.72;7398212;19;20039;-70
2022/10/09 05:54:37;;;;;;;16.30;8.13;;;;;;;4.46;91.09;102071.13;7397041;19;20375;-70
2022/10/09 05:57:06;;;;;;;13.75;7.55;;;;;;;4.49;91.22;102072.91;7396081;19;20022;-68
2022/10/09 05:59:34;;;;;;;15.30;7.05;;;;;;;4.50;91.18;102074.66;7396546;19;20021;-69
2022/10/09 06:02:03;;;;;;;9.27;6.45;;;;;;;4.50;91.38;102078.16;7396558;19;20026;-69
2022/10/09 06:04:31;;;;;;;12.27;7.50;;;;;;;4.51;91.53;102079.91;7398216;19;20481;-69
2022/10/09 06:07:02;;;;;;;11.07;7.28;;;;;;;4.52;91.52;102084.25;7395873;19;20022;-69
2022/10/09 06:09:31;;;;;;;12.63;6.55;;;;;;;4.52;91.36;102081.63;7398902;19;20023;-69
2022/10/09 06:11:59;;;;;;;15.07;6.85;;;;;;;4.53;91.64;102090.34;7398243;19;20031;-69
2022/10/09 06:14:28;;;;;;;12.15;7.05;;;;;;;4.56;91.46;102100.78;7397627;19;20484;-70
2022/10/09 06:16:56;;;;;;;18.75;8.30;;;;;;;4.57;91.57;102100.84;7395810;19;20481;-69
2022/10/09 06:19:25;;;;;;;13.73;7.25;;;;;;;4.59;91.47;102102.59;7398178;19;20026;-69
2022/10/09 06:21:53;;;;;;;17.08;7.45;;;;;;;4.61;91.77;102109.59;7398029;19;20062;-69
2022/10/09 06:24:27;;;;;;;10.90;6.45;;;;;;;4.64;91.59;102107.06;7397793;19;20018;-69
2022/10/09 06:26:55;;;;;;;12.40;6.90;;;;;;;4.66;91.79;102105.41;7397632;19;20018;-68
2022/10/09 06:29:24;;;;;;;11.18;7.57;;;;;;;4.68;91.70;102105.44;7397526;19;20026;-68
2022/10/09 06:31:52;;;;;;;13.25;8.32;;;;;;;4.72;91.88;102117.66;7396853;19;20506;-69
2022/10/09 06:34:21;;;;;;;18.63;8.88;;;;;;;4.75;91.73;102119.47;7397242;19;20015;-70
2022/10/09 06:36:50;;;;;;;11.48;7.47;;;;;;;4.77;91.72;102117.78;7394593;19;20398;-70
2022/10/09 06:39:19;;;;;;;13.75;7.82;;;;;;;4.81;91.92;102122.22;7396415;19;20014;-69
2022/10/09 06:41:50;;;;;;;8.88;7.15;;;;;;;4.84;91.84;102123.16;7395232;19;20215;-70
2022/10/09 06:44:19;;;;;;;16.70;8.00;;;;;;;4.89;91.91;102128.47;7397721;19;20018;-68
2022/10/09 06:46:50;;;;;;;11.23;7.00;;;;;;;4.94;91.83;102134.69;7396547;19;20031;-69
2022/10/09 06:49:18;;;;;;;16.33;7.50;;;;;;;4.98;91.90;102133.00;7396356;19;20029;-69
2022/10/09 06:51:47;;;;;;;12.60;8.18;;;;;;;5.03;91.87;102137.50;7397022;19;20431;-68
2022/10/09 06:54:17;;;;;;;14.68;7.00;;;;;;;5.09;92.18;102128.94;7395622;19;20023;-69
2022/10/09 06:56:46;;;;;;;12.93;7.00;;;;;;;5.13;92.15;102141.19;7395014;19;20018;-69
2022/10/09 06:59:17;;;;;;;12.70;7.20;;;;;;;5.18;92.14;102142.16;7396536;19;20099;-68
2022/10/09 07:01:46;;;;;;;13.38;7.38;;;;;;;5.25;91.97;102153.59;7394694;19;20011;-68
2022/10/09 07:04:17;;;;;;;14.23;8.05;;;;;;;5.30;92.25;102146.75;7396597;19;20019;-68
2022/10/09 07:06:48;;;;;;;12.32;6.90;;;;;;;5.38;92.47;102155.63;7396462;19;20028;-68
2022/10/09 07:09:17;;;;;;;15.00;7.35;;;;;;;5.47;92.34;102159.28;7396728;19;20014;-68
2022/10/09 07:11:47;;;;;;;12.93;7.32;;;;;;;5.54;92.32;102155.97;7396300;19;20014;-67
2022/10/09 07:14:19;;;;;;;13.27;6.35;;;;;;;5.60;92.37;102150.91;7393964;19;20479;-69
2022/10/09 07:16:49;;;;;;;19.13;6.50;;;;;;;5.71;92.24;102156.31;7394695;19;20022;-68
2022/10/09 07:19:20;;;;;;;11.45;6.43;;;;;;;5.79;92.17;102156.50;7394506;19;20369;-67
2022/10/09 07:21:51;;;;;;;13.05;6.70;;;;;;;5.88;92.17;102161.88;7396517;19;20056;-68
2022/10/09 07:24:23;;;;;;;12.57;7.07;;;;;;;5.94;92.13;102156.81;7394537;19;20090;-69
2022/10/09 07:26:54;;;;;;;13.60;6.55;;;;;;;6.02;92.03;102165.66;7396035;19;20047;-67
2022/10/09 07:29:25;;;;;;;14.40;6.90;;;;;;;6.10;92.30;102163.22;7393864;19;20095;-67
2022/10/09 07:31:53;;;;;;;14.10;7.30;;;;;;;6.19;92.26;102159.91;7396141;19;20033;-68
2022/10/09 07:34:22;;;;;;;13.75;6.35;;;;;;;6.26;92.07;102163.53;7395459;19;20014;-69
2022/10/09 07:36:50;;;;;;;10.27;7.00;;;;;;;6.33;92.01;102155.84;7393506;19;20021;-72
2022/10/09 07:39:20;;;;;;;12.38;5.80;;;;;;;6.42;92.07;102164.69;7395119;19;20484;-68
2022/10/09 07:41:51;;;;;;;15.65;6.45;;;;;;;6.50;92.04;102163.09;7393082;19;20015;-68
2022/10/09 07:44:20;;;;;;;15.70;5.20;;;;;;;6.58;91.98;102164.09;7394950;19;20485;-68
2022/10/09 07:46:52;;;;;;;10.40;5.43;;;;;;;6.67;92.17;102172.09;7393258;19;20022;-67
2022/10/09 07:49:21;;;;;;;12.82;5.18;;;;;;;6.76;91.80;102165.28;7393684;19;20014;-68
2022/10/09 07:51:50;;;;;;;13.13;5.10;;;;;;;6.83;91.82;102167.13;7394929;19;20027;-67
2022/10/09 07:54:18;;;;;;;10.93;4.55;;;;;;;6.92;91.90;102171.63;7393546;19;20024;-70
2022/10/09 07:56:47;;;;;;;13.95;5.20;;;;;;;6.98;91.54;102172.59;7392739;19;20498;-68
2022/10/09 07:59:17;;;;;;;12.95;4.95;;;;;;;7.05;91.67;102168.38;7394526;19;20023;-69
2022/10/09 08:01:46;;;;;;;15.13;4.85;;;;;;;7.15;91.46;102167.66;7399507;19;20022;-68
2022/10/09 08:04:17;;;;;;;6.82;3.80;;;;;;;7.24;91.45;102173.88;7402341;19;20022;-68
2022/10/09 08:06:45;;;;;;;5.88;3.65;;;;;;;7.31;91.07;102170.50;7401836;19;20484;-67
2022/10/09 08:09:14;;;;;;;7.72;3.80;;;;;;;7.38;91.30;102177.56;7402276;19;20014;-67
2022/10/09 08:11:43;;;;;;;9.68;3.88;;;;;;;7.44;91.09;102169.84;7402499;19;20039;-68
2022/10/09 08:14:14;;;;;;;10.75;3.90;;;;;;;7.50;90.87;102167.28;7403737;19;20033;-65
2022/10/09 08:16:43;;;;;;;8.90;3.45;;;;;;;7.59;90.68;102176.97;7400215;19;20011;-66
2022/10/09 08:19:11;;;;;;;10.68;3.70;;;;;;;7.69;90.75;102182.34;7401499;19;20018;-65
2022/10/09 08:21:42;;;;;;;6.43;3.80;;;;;;;7.77;90.37;102178.97;7398608;19;20502;-65
2022/10/09 08:24:12;;;;;;;9.48;3.60;;;;;;;7.86;90.26;102186.06;7399566;19;20019;-65
2022/10/09 08:26:41;;;;;;;11.15;3.40;;;;;;;7.95;90.13;102180.94;7401619;19;20026;-65
2022/10/09 08:29:12;;;;;;;6.70;3.35;;;;;;;8.04;89.83;102184.50;7401205;19;20475;-64
2022/10/09 08:31:41;;;;;;;9.20;4.82;;;;;;;8.11;89.68;102186.34;7401267;19;20014;-66
2022/10/09 08:34:10;;;;;;;8.82;3.83;;;;;;;8.20;89.49;102183.84;7399221;19;20014;-63
2022/10/09 08:36:41;;;;;;;10.85;3.60;;;;;;;8.27;89.29;102172.56;7400133;19;20018;-66
2022/10/09 08:39:10;;;;;;;8.30;3.08;;;;;;;8.36;89.36;102176.16;7401836;19;20026;-65
2022/10/09 08:41:46;;;;;;;8.65;3.40;;;;;;;8.43;88.98;102178.00;7401374;19;20028;-65
2022/10/09 08:44:19;;;;;;;13.27;3.25;;;;;;;8.51;88.98;102184.19;7401724;19;20022;-66
2022/10/09 08:46:59;;;;;;;9.10;3.20;;;;;;;8.60;88.56;102183.41;7400903;19;20078;-66
2022/10/09 08:49:34;;;;;;;9.55;3.15;;;;;;;8.67;88.31;102179.09;7401351;19;20019;-66
2022/10/09 08:52:17;;;;;;;8.63;2.80;;;;;;;8.74;88.02;102183.53;7401523;19;20015;-64
2022/10/09 08:54:52;;;;;;;11.73;4.93;;;;;;;8.80;87.94;102184.44;7398774;19;20481;-66
2022/10/09 08:57:22;;;;;;;6.05;2.58;;;;;;;8.90;87.80;102190.66;7397157;19;20104;-68
2022/10/09 08:59:51;;;;;;;15.95;3.30;;;;;;;8.96;87.56;102179.38;7397867;19;20485;-66
2022/10/09 09:02:35;;;;;;;9.45;2.85;;;;;;;9.04;87.24;102177.66;7397567;19;20031;-66
2022/10/09 09:05:21;;;;;;;8.00;2.17;;;;;;;9.13;86.84;102177.72;7396254;19;20078;-66
2022/10/09 09:08:00;;;;;;;9.98;2.95;;;;;;;9.21;86.46;102180.44;7395610;19;20485;-66
2022/10/09 09:10:39;;;;;;;12.23;2.85;;;;;;;9.29;86.25;102178.72;7396570;19;20018;-68
2022/10/09 09:13:22;;;;;;;5.75;1.88;;;;;;;9.36;86.13;102178.75;7397323;19;20019;-70
2022/10/09 09:15:57;;;;;;;7.85;1.90;;;;;;;9.44;85.86;102171.84;7397171;19;20033;-70
2022/10/09 09:18:36;;;;;;;7.05;2.33;;;;;;;9.51;85.57;102184.09;7395575;19;20108;-68
2022/10/09 09:21:13;;;;;;;9.85;2.63;;;;;;;9.59;85.31;102179.78;7397363;19;20018;-70
2022/10/09 09:23:48;;;;;;;11.02;3.15;;;;;;;9.68;85.10;102176.34;7397701;19;20019;-69
2022/10/09 09:26:20;;;;;;;7.18;1.98;;;;;;;9.78;84.89;102172.88;7394728;19;20027;-68
2022/10/09 09:28:53;;;;;;;13.57;2.70;;;;;;;9.88;84.58;102178.16;7394663;19;20395;-68
2022/10/09 09:31:27;;;;;;;8.60;2.30;;;;;;;9.95;84.28;102175.56;7397912;19;20031;-70
2022/10/09 09:34:02;;;;;;;13.48;2.78;;;;;;;10.04;84.41;102179.09;7397428;19;20018;-69
2022/10/09 09:36:44;;;;;;;8.77;1.92;;;;;;;10.10;83.89;102173.88;7396620;19;20014;-69
2022/10/09 09:39:15;;;;;;;7.97;1.77;;;;;;;10.22;83.64;102173.03;7394692;19;20027;-68
2022/10/09 09:41:45;;;;;;;8.35;2.35;;;;;;;10.30;83.35;102173.03;7396969;19;20022;-69
2022/10/09 09:44:17;;;;;;;9.40;1.95;;;;;;;10.39;83.12;102171.34;7393873;19;20018;-68
2022/10/09 09:46:49;;;;;;;7.90;2.15;;;;;;;10.49;82.85;102171.34;7394762;19;20419;-70
2022/10/09 09:49:19;;;;;;;8.10;1.63;;;;;;;10.58;82.58;102174.00;7398640;19;20100;-67
2022/10/09 09:51:48;;;;;;;6.22;2.03;;;;;;;10.67;82.39;102165.28;7396681;19;20032;-66
2022/10/09 09:54:31;;;;;;;9.73;2.28;;;;;;;10.75;81.84;102156.53;6264055;19;22225332;-67
2022/10/09 09:57:01;;;;;;;10.07;1.73;;;;;;;10.84;81.59;102157.38;7398479;19;20026;-68
2022/10/09 09:59:34;;;;;;;6.15;2.08;;;;;;;10.91;81.05;102160.00;7396725;19;20028;-67
2022/10/09 10:02:06;;;;;;;6.93;2.20;;;;;;;11.00;81.06;102155.63;7398447;19;20018;-68
2022/10/09 10:04:34;;;;;;;10.90;2.28;;;;;;;11.07;80.95;102155.63;7399383;19;20014;-67
2022/10/09 10:07:04;;;;;;;17.77;5.53;;;;;;;11.16;80.51;102157.38;7398541;19;20045;-67
2022/10/09 10:09:35;;;;;;;10.23;3.28;;;;;;;11.25;80.23;102152.09;7398462;19;20010;-67
2022/10/09 10:12:05;;;;;;;13.85;3.80;;;;;;;11.34;79.77;102151.19;7396266;19;20435;-67
2022/10/09 10:14:35;;;;;;;9.35;2.55;;;;;;;11.43;79.31;102155.56;7398274;19;20407;-65
2022/10/09 10:17:04;;;;;;;11.45;2.40;;;;;;;11.53;78.85;102143.28;7396790;19;20022;-65
2022/10/09 10:19:35;;;;;;;11.38;2.15;;;;;;;11.58;78.32;102142.34;7397560;19;20518;-66
2022/10/09 10:22:06;;;;;;;7.85;2.13;;;;;;;11.67;78.03;102140.59;7398658;19;20025;-66
2022/10/09 10:24:42;;;;;;;9.88;1.70;;;;;;;11.74;77.17;102137.94;7395986;19;20026;-67
2022/10/09 10:27:23;;;;;;;11.75;1.90;;;;;;;11.81;76.93;102140.53;7396681;19;20410;-66
2022/10/09 10:29:53;;;;;;;7.22;1.58;;;;;;;11.86;76.69;102131.72;7395082;19;20019;-66
2022/10/09 10:32:27;;;;;;;12.85;2.05;;;;;;;11.91;76.22;102134.34;7397797;19;20015;-70
2022/10/09 10:35:05;;;;;;;6.35;1.52;;;;;;;11.95;75.51;102125.53;7397806;19;20031;-67
2022/10/09 10:37:43;;;;;;;11.18;1.77;;;;;;;12.04;75.15;102133.44;7396506;19;20039;-67
2022/10/09 10:40:20;;;;;;;9.85;2.17;;;;;;;12.09;74.36;102130.75;7398194;19;20018;-68
2022/10/09 10:43:07;;;;;;;12.48;2.65;;;;;;;12.16;74.11;102124.59;7397501;19;20018;-68
2022/10/09 10:45:41;;;;;;;12.25;3.15;;;;;;;12.22;73.93;102131.59;7397627;19;20087;-67
2022/10/09 10:48:13;;;;;;;10.48;1.80;;;;;;;12.29;73.69;102124.50;7397468;19;20110;-66
2022/10/09 10:50:49;;;;;;;9.10;1.60;;;;;;;12.33;72.67;102124.50;7396656;19;20420;-68
2022/10/09 10:53:38;;;;;;;7.50;1.70;;;;;;;12.38;69.98;102120.06;7394534;19;20470;-68
2022/10/09 10:56:16;;;;;;;10.30;1.55;;;;;;;12.45;71.22;102122.63;7394712;19;20027;-69
2022/10/09 10:58:52;;;;;;;10.60;1.83;;;;;;;12.49;71.30;102113.84;7395005;19;20039;-69
2022/10/09 11:01:32;;;;;;;4.85;1.42;;;;;;;12.53;71.12;102119.03;7396679;19;20039;-68
2022/10/09 11:04:20;;;;;;;4.25;1.30;;;;;;;12.59;70.16;102114.66;7396126;19;20517;-69
2022/10/09 11:06:59;;;;;;;6.20;1.25;;;;;;;12.64;70.87;102110.22;7395695;19;20486;-68
2022/10/09 11:09:39;;;;;;;9.48;1.67;;;;;;;12.70;70.27;102111.03;7395925;19;20031;-67
2022/10/09 11:12:16;;;;;;;7.47;1.65;;;;;;;12.78;69.56;102110.09;7395891;19;20028;-67
2022/10/09 11:14:51;;;;;;;10.07;1.73;;;;;;;12.81;68.73;102100.38;7395783;19;20485;-68
2022/10/09 11:17:29;;;;;;;5.53;1.05;;;;;;;12.88;69.16;102104.72;7393677;19;20511;-68
2022/10/09 11:20:12;;;;;;;5.90;1.10;;;;;;;12.92;68.45;102096.78;7395852;19;20022;-67
2022/10/09 11:23:05;;;;;;;8.57;1.10;;;;;;;12.97;67.81;102090.56;7395595;19;20478;-68
2022/10/09 11:25:44;;;;;;;6.80;1.40;;;;;;;13.03;68.70;102092.28;7396564;19;20031;-67
2022/10/09 11:28:19;;;;;;;8.10;1.42;;;;;;;13.08;67.78;102085.22;7393426;19;20018;-67
2022/10/09 11:30:54;;;;;;;7.25;1.58;;;;;;;13.15;67.68;102080.72;7395058;19;20014;-68
2022/10/09 11:33:36;;;;;;;8.85;1.83;;;;;;;13.23;67.72;102075.38;7395275;19;20019;-69
2022/10/09 11:36:12;;;;;;;8.07;1.48;;;;;;;13.30;67.63;102072.63;7394945;19;20015;-68
2022/10/09 11:38:45;;;;;;;6.00;2.03;;;;;;;13.35;67.33;102068.19;7392458;19;20094;-67
2022/10/09 11:41:14;;;;;;;7.50;1.33;;;;;;;13.43;67.33;102060.22;7393030;19;20505;-69
2022/10/09 11:44:02;;;;;;;11.48;1.60;;;;;;;13.52;67.27;102059.22;7393340;19;20039;-68
2022/10/09 11:46:45;;;;;;;11.18;1.70;;;;;;;13.62;67.15;102057.34;7395487;19;20010;-69
2022/10/09 11:49:23;;;;;;;9.98;1.35;;;;;;;13.71;66.25;102058.97;7395557;19;20026;-69
2022/10/09 11:51:58;;;;;;;8.13;1.20;;;;;;;13.78;64.84;102053.59;7395423;19;20023;-69